createdAt,value
2023-02-05T00:01:20.120Z,97103.44
2023-02-05T00:03:46.950Z,97095.09
2023-02-05T00:06:13.527Z,97086.69
2023-02-05T00:08:40.032Z,97097.00
2023-02-05T00:11:09.770Z,97088.94
2023-02-05T00:13:38.331Z,97091.59
2023-02-05T00:16:10.388Z,97100.75
2023-02-05T00:18:37.531Z,97094.94
2023-02-05T00:21:05.713Z,97092.78
2023-02-05T00:23:33.408Z,97082.72
2023-02-05T00:26:00.009Z,97081.03
2023-02-05T00:28:26.813Z,97089.66
2023-02-05T00:30:53.518Z,97086.22
2023-02-05T00:33:21.842Z,97081.03
2023-02-05T00:35:49.621Z,97085.31
2023-02-05T00:38:17.003Z,97086.22
2023-02-05T00:40:43.819Z,97093.75
2023-02-05T00:43:10.413Z,97092.63
2023-02-05T00:45:37.066Z,97086.81
2023-02-05T00:48:07.204Z,97094.94
2023-02-05T00:50:35.562Z,97097.97
2023-02-05T00:53:02.199Z,97096.53
2023-02-05T00:55:28.843Z,97101.72
2023-02-05T00:57:55.438Z,97100.31
2023-02-05T01:00:22.702Z,97103.72
2023-02-05T01:02:49.283Z,97108.47
2023-02-05T01:05:15.968Z,97099.78
2023-02-05T01:07:42.514Z,97103.00
2023-02-05T01:10:09.270Z,97098.56
2023-02-05T01:12:35.822Z,97091.91
2023-02-05T01:15:05.968Z,97087.88
2023-02-05T01:17:32.712Z,97085.91
2023-02-05T01:19:59.239Z,97089.72
2023-02-05T01:22:25.787Z,97084.75
2023-02-05T01:24:52.964Z,97087.34
2023-02-05T01:27:19.558Z,97075.22
2023-02-05T01:29:47.169Z,97086.31
2023-02-05T01:32:13.700Z,97084.13
2023-02-05T01:34:40.260Z,97082.31
2023-02-05T01:37:06.789Z,97084.00
2023-02-05T01:39:33.354Z,97080.41
2023-02-05T01:41:59.870Z,97087.97
2023-02-05T01:44:26.410Z,97079.91
2023-02-05T01:46:54.685Z,97082.78
2023-02-05T01:49:36.576Z,97070.94
2023-02-05T01:52:07.022Z,97079.22
2023-02-05T01:54:37.832Z,97087.78
2023-02-05T01:57:16.472Z,97086.09
2023-02-05T01:59:45.144Z,97079.56
2023-02-05T02:02:11.794Z,97083.66
2023-02-05T02:04:38.405Z,97082.81
2023-02-05T02:07:06.243Z,97076.28
2023-02-05T02:09:34.584Z,97084.00
2023-02-05T02:12:01.859Z,97073.78
2023-02-05T02:14:32.201Z,97072.22
2023-02-05T02:17:00.427Z,97070.41
2023-02-05T02:19:38.011Z,97071.44
2023-02-05T02:22:26.760Z,97062.19
2023-02-05T02:25:01.839Z,97056.25
2023-02-05T02:27:44.300Z,97053.94
2023-02-05T02:30:27.629Z,97052.91
2023-02-05T02:33:09.042Z,97050.53
2023-02-05T02:35:35.912Z,97049.59
2023-02-05T02:38:18.755Z,97053.25
2023-02-05T02:41:01.377Z,97052.03
2023-02-05T02:43:55.826Z,97056.38
2023-02-05T02:46:24.454Z,97045.66
2023-02-05T02:48:56.156Z,97047.28
2023-02-05T02:51:27.523Z,97040.28
2023-02-05T02:53:57.869Z,97045.13
2023-02-05T02:56:28.323Z,97038.09
2023-02-05T02:59:06.651Z,97043.19
2023-02-05T03:01:37.966Z,97043.19
2023-02-05T03:04:13.440Z,97038.31
2023-02-05T03:06:44.937Z,97038.81
2023-02-05T03:09:20.992Z,97039.31
2023-02-05T03:11:47.720Z,97035.59
2023-02-05T03:14:14.942Z,97033.19
2023-02-05T03:16:41.604Z,97026.97
2023-02-05T03:19:08.769Z,97017.31
2023-02-05T03:21:50.001Z,97017.78
2023-02-05T03:24:17.160Z,97012.41
2023-02-05T03:26:43.692Z,97018.22
2023-02-05T03:29:26.130Z,97006.78
2023-02-05T03:32:08.313Z,96998.34
2023-02-05T03:34:40.974Z,96997.13
2023-02-05T03:37:34.033Z,96989.88
2023-02-05T03:40:09.572Z,96987.34
2023-02-05T03:43:01.161Z,96993.97
2023-02-05T03:45:32.041Z,96998.34
2023-02-05T03:48:37.852Z,96996.09
2023-02-05T03:51:10.358Z,96990.00
2023-02-05T03:53:55.895Z,96991.75
2023-02-05T03:57:04.023Z,96997.50
2023-02-05T03:59:35.312Z,97000.72
2023-02-05T04:02:04.670Z,96999.16
2023-02-05T04:04:35.550Z,97010.47
2023-02-05T04:07:02.746Z,97015.16
2023-02-05T04:09:29.720Z,97010.13
2023-02-05T04:11:56.599Z,97007.59
2023-02-05T04:14:23.940Z,97002.66
2023-02-05T04:16:51.188Z,96998.72
2023-02-05T04:19:20.374Z,96994.25
2023-02-05T04:21:46.968Z,96993.66
2023-02-05T04:24:13.831Z,96986.41
2023-02-05T04:26:40.757Z,96989.75
2023-02-05T04:29:07.957Z,96987.31
2023-02-05T04:31:40.905Z,96989.47
2023-02-05T04:34:07.667Z,96983.25
2023-02-05T04:36:34.533Z,96973.22
2023-02-05T04:39:02.015Z,96977.16
2023-02-05T04:41:29.444Z,96971.34
2023-02-05T04:43:55.979Z,96959.16
2023-02-05T04:46:22.599Z,96965.31
2023-02-05T04:48:49.160Z,96965.41
2023-02-05T04:51:16.158Z,96963.84
2023-02-05T04:53:42.790Z,96973.69
2023-02-05T04:56:12.230Z,96972.69
2023-02-05T04:58:39.605Z,96963.88
2023-02-05T05:01:12.451Z,96962.72
2023-02-05T05:03:39.360Z,96966.06
2023-02-05T05:06:06.588Z,96969.63
2023-02-05T05:08:33.222Z,96974.59
2023-02-05T05:11:06.264Z,96955.47
2023-02-05T05:13:34.315Z,96964.50
2023-02-05T05:16:01.502Z,96961.00
2023-02-05T05:18:28.478Z,96956.13
2023-02-05T05:20:55.015Z,96963.09
2023-02-05T05:23:21.608Z,96962.19
2023-02-05T05:25:48.611Z,96956.13
2023-02-05T05:28:16.591Z,96953.34
2023-02-05T05:30:45.010Z,96961.53
2023-02-05T05:33:12.249Z,96966.66
2023-02-05T05:35:39.229Z,96969.94
2023-02-05T05:38:06.101Z,96959.47
2023-02-05T05:40:51.748Z,96958.25
2023-02-05T05:43:39.228Z,96953.97
2023-02-05T05:46:06.940Z,96952.03
2023-02-05T05:48:33.621Z,96952.69
2023-02-05T05:51:00.192Z,96962.16
2023-02-05T05:53:27.721Z,96964.66
2023-02-05T05:55:54.269Z,96977.34
2023-02-05T05:58:20.794Z,96968.53
2023-02-05T06:00:47.392Z,96956.38
2023-02-05T06:03:14.077Z,96961.75
2023-02-05T06:05:40.628Z,96957.59
2023-02-05T06:08:07.591Z,96948.69
2023-02-05T06:10:35.026Z,96953.88
2023-02-05T06:13:01.572Z,96965.22
2023-02-05T06:15:28.204Z,96964.66
2023-02-05T06:17:54.745Z,96960.03
2023-02-05T06:20:21.377Z,96960.28
2023-02-05T06:22:47.913Z,96955.53
2023-02-05T06:25:15.672Z,96953.50
2023-02-05T06:27:42.352Z,96962.06
2023-02-05T06:30:09.561Z,96964.25
2023-02-05T06:32:36.174Z,96971.97
2023-02-05T06:35:03.026Z,96972.28
2023-02-05T06:37:46.293Z,96979.28
2023-02-05T06:40:15.606Z,96983.19
2023-02-05T06:42:42.449Z,96995.81
2023-02-05T06:45:10.067Z,96989.75
2023-02-05T06:47:36.895Z,96992.13
2023-02-05T06:50:04.175Z,96989.88
2023-02-05T06:52:30.695Z,96980.63
2023-02-05T06:54:57.215Z,96977.38
2023-02-05T06:57:23.757Z,96988.94
2023-02-05T06:59:50.966Z,96988.59
2023-02-05T07:02:17.512Z,96990.38
2023-02-05T07:04:44.061Z,96997.22
2023-02-05T07:07:10.630Z,97004.78
2023-02-05T07:09:37.157Z,96989.66
2023-02-05T07:12:03.912Z,96991.28
2023-02-05T07:14:31.491Z,96989.66
2023-02-05T07:16:58.099Z,96996.25
2023-02-05T07:19:24.639Z,96998.16
2023-02-05T07:21:51.152Z,96996.75
2023-02-05T07:24:17.730Z,96993.50
2023-02-05T07:26:45.237Z,96984.28
2023-02-05T07:29:12.099Z,96987.59
2023-02-05T07:31:38.782Z,96973.66
2023-02-05T07:34:05.388Z,96982.78
2023-02-05T07:36:31.921Z,96984.59
2023-02-05T07:38:58.506Z,96990.47
2023-02-05T07:41:26.750Z,96986.91
2023-02-05T07:43:54.511Z,96984.91
2023-02-05T07:46:22.248Z,96991.13
2023-02-05T07:48:49.307Z,96992.53
2023-02-05T07:51:18.615Z,96990.50
2023-02-05T07:53:45.862Z,96988.44
2023-02-05T07:56:12.656Z,96988.09
2023-02-05T07:58:39.260Z,96988.13
2023-02-05T08:01:06.187Z,96995.03
2023-02-05T08:03:32.916Z,96993.63
2023-02-05T08:05:59.739Z,96985.53
2023-02-05T08:08:26.319Z,96992.75
2023-02-05T08:10:58.338Z,96994.13
2023-02-05T08:13:24.940Z,97002.19
2023-02-05T08:15:51.528Z,97003.25
2023-02-05T08:18:18.133Z,97000.81
2023-02-05T08:20:44.855Z,96997.16
2023-02-05T08:23:11.472Z,96994.91
2023-02-05T08:25:38.808Z,96995.72
2023-02-05T08:28:06.282Z,96983.59
2023-02-05T08:30:32.884Z,96978.84
2023-02-05T08:32:59.443Z,96984.13
2023-02-05T08:35:25.996Z,96979.22
2023-02-05T08:37:52.558Z,96973.78
2023-02-05T08:40:19.626Z,96976.28
2023-02-05T08:42:46.700Z,96969.94
2023-02-05T08:45:14.021Z,96978.50
2023-02-05T08:47:40.662Z,96967.41
2023-02-05T08:50:07.335Z,96962.66
2023-02-05T08:52:33.883Z,96955.69
2023-02-05T08:55:00.455Z,96946.06
2023-02-05T08:57:30.539Z,96937.16
2023-02-05T08:59:57.396Z,96932.19
2023-02-05T09:02:26.852Z,96932.34
2023-02-05T09:05:07.695Z,96921.81
2023-02-05T09:07:35.399Z,96917.41
2023-02-05T09:10:01.933Z,96921.53
2023-02-05T09:12:28.501Z,96906.09
2023-02-05T09:14:55.313Z,96902.03
2023-02-05T09:17:21.876Z,96900.06
2023-02-05T09:19:48.478Z,96900.94
2023-02-05T09:22:15.073Z,96899.56
2023-02-05T09:24:41.758Z,96898.63
2023-02-05T09:27:08.349Z,96902.13
2023-02-05T09:29:35.053Z,96893.97
2023-02-05T09:32:01.632Z,96897.78
2023-02-05T09:34:28.306Z,96889.00
2023-02-05T09:36:54.832Z,96888.47
2023-02-05T09:39:52.375Z,96894.16
2023-02-05T09:42:30.065Z,96897.38
2023-02-05T09:45:14.598Z,96892.69
2023-02-05T09:47:59.853Z,96886.31
2023-02-05T09:50:31.430Z,96884.94
2023-02-05T09:53:09.527Z,96882.03
2023-02-05T09:55:40.158Z,96876.63
2023-02-05T09:58:31.015Z,96872.94
2023-02-05T10:01:02.823Z,96874.94
2023-02-05T10:03:34.263Z,96862.69
2023-02-05T10:06:15.840Z,96855.03
2023-02-05T10:08:53.310Z,96850.50
2023-02-05T10:11:25.941Z,96835.00
2023-02-05T10:14:04.900Z,96822.72
2023-02-05T10:17:16.730Z,96820.78
2023-02-05T10:20:20.329Z,96825.59
2023-02-05T10:22:59.093Z,96811.06
2023-02-05T10:25:50.029Z,96808.63
2023-02-05T10:28:45.270Z,96802.75
2023-02-05T10:31:27.182Z,96799.88
2023-02-05T10:34:00.793Z,96790.53
2023-02-05T10:36:27.779Z,96792.81
2023-02-05T10:38:57.275Z,96784.69
2023-02-05T10:41:38.823Z,96779.97
2023-02-05T10:44:27.939Z,96777.09
2023-02-05T10:47:03.495Z,96770.00
2023-02-05T10:49:52.183Z,96769.63
2023-02-05T10:52:19.072Z,96757.25
2023-02-05T10:54:45.803Z,96761.59
2023-02-05T10:57:16.184Z,96765.53
2023-02-05T11:00:02.254Z,96758.13
2023-02-05T11:02:34.560Z,96757.22
2023-02-05T11:05:06.067Z,96763.72
2023-02-05T11:07:38.288Z,96760.53
2023-02-05T11:10:21.175Z,96755.84
2023-02-05T11:13:24.599Z,96754.94
2023-02-05T11:15:58.912Z,96759.19
2023-02-05T11:18:33.421Z,96759.88
2023-02-05T11:21:02.982Z,96754.25
2023-02-05T11:23:32.082Z,96752.28
2023-02-05T11:26:01.257Z,96749.88
2023-02-05T11:28:32.852Z,96753.97
2023-02-05T11:31:20.805Z,96758.09
2023-02-05T11:33:48.759Z,96756.06
2023-02-05T11:36:26.187Z,96755.09
2023-02-05T11:38:57.045Z,96750.59
2023-02-05T11:41:48.156Z,96760.38
2023-02-05T11:44:26.103Z,96764.09
2023-02-05T11:46:56.850Z,96762.41
2023-02-05T11:49:41.025Z,96768.88
2023-02-05T11:52:13.358Z,96774.78
2023-02-05T11:54:45.852Z,96767.22
2023-02-05T11:57:18.605Z,96761.34
2023-02-05T11:59:55.624Z,96755.59
2023-02-05T12:02:30.872Z,96755.16
2023-02-05T12:05:10.990Z,96760.66
2023-02-05T12:07:48.597Z,96763.16
2023-02-05T12:10:26.498Z,96761.50
2023-02-05T12:13:02.700Z,96768.22
2023-02-05T12:15:37.372Z,96760.66
2023-02-05T12:18:22.522Z,96763.69
2023-02-05T12:21:28.345Z,96751.22
2023-02-05T12:24:18.480Z,96747.84
2023-02-05T12:26:48.500Z,96747.69
2023-02-05T12:29:30.582Z,96747.47
2023-02-05T12:31:57.196Z,96747.19
2023-02-05T12:35:02.426Z,96747.84
2023-02-05T12:37:28.920Z,96744.75
2023-02-05T12:40:10.156Z,96735.66
2023-02-05T12:42:44.716Z,96734.59
2023-02-05T12:45:36.663Z,96735.47
2023-02-05T12:48:28.292Z,96728.25
2023-02-05T12:51:16.801Z,96728.59
2023-02-05T12:54:02.815Z,96724.88
2023-02-05T12:56:56.502Z,96732.16
2023-02-05T12:59:45.650Z,96728.50
2023-02-05T13:02:32.378Z,96733.03
2023-02-05T13:05:09.292Z,96724.84
2023-02-05T13:07:42.833Z,96724.06
2023-02-05T13:10:28.334Z,96732.41
2023-02-05T13:13:00.536Z,96741.78
2023-02-05T13:15:35.806Z,96734.31
2023-02-05T13:18:17.087Z,96730.59
2023-02-05T13:21:08.161Z,96725.13
2023-02-05T13:23:55.065Z,96731.31
2023-02-05T13:26:48.659Z,96729.31
2023-02-05T13:29:17.404Z,96724.81
2023-02-05T13:31:49.020Z,96724.53
2023-02-05T13:34:17.292Z,96730.69
2023-02-05T13:37:00.343Z,96728.63
2023-02-05T13:39:42.032Z,96732.53
2023-02-05T13:42:23.787Z,96727.94
2023-02-05T13:45:28.285Z,96728.91
2023-02-05T13:48:32.581Z,96723.69
2023-02-05T13:51:38.071Z,96724.50
2023-02-05T13:54:25.777Z,96725.25
2023-02-05T13:57:24.912Z,96723.41
2023-02-05T13:59:53.288Z,96729.94
2023-02-05T14:02:32.498Z,96728.25
2023-02-05T14:05:00.746Z,96723.53
2023-02-05T14:07:32.192Z,96724.16
2023-02-05T14:10:00.984Z,96726.78
2023-02-05T14:12:33.348Z,96725.44
2023-02-05T14:15:25.172Z,96720.91
2023-02-05T14:17:54.261Z,96719.66
2023-02-05T14:20:30.092Z,96720.28
2023-02-05T14:23:00.808Z,96719.88
2023-02-05T14:25:38.184Z,96722.41
2023-02-05T14:28:17.072Z,96720.50
2023-02-05T14:30:46.832Z,96714.97
2023-02-05T14:33:33.456Z,96707.19
2023-02-05T14:36:15.221Z,96705.59
2023-02-05T14:38:51.739Z,96701.03
2023-02-05T14:41:24.811Z,96698.53
2023-02-05T14:44:02.116Z,96698.66
2023-02-05T14:46:30.814Z,96707.88
2023-02-05T14:49:00.418Z,96699.84
2023-02-05T14:51:38.400Z,96689.06
2023-02-05T14:54:18.089Z,96696.38
2023-02-05T14:56:50.640Z,96695.66
2023-02-05T14:59:29.234Z,96704.41
2023-02-05T15:01:57.844Z,96697.53
2023-02-05T15:04:50.294Z,96697.53
2023-02-05T15:07:24.462Z,96700.88
2023-02-05T15:10:00.259Z,96704.53
2023-02-05T15:12:35.589Z,96700.75
2023-02-05T15:15:27.997Z,96701.47
2023-02-05T15:17:59.076Z,96701.69
2023-02-05T15:20:32.337Z,96704.84
2023-02-05T15:23:23.407Z,96706.91
2023-02-05T15:26:01.900Z,96709.59
2023-02-05T15:28:31.329Z,96709.44
2023-02-05T15:31:06.247Z,96709.44
2023-02-05T15:33:42.967Z,96713.56
2023-02-05T15:36:32.001Z,96716.69
2023-02-05T15:39:12.747Z,96713.66
2023-02-05T15:41:43.679Z,96709.19
2023-02-05T15:44:21.610Z,96717.09
2023-02-05T15:46:49.142Z,96716.78
2023-02-05T15:49:15.753Z,96723.97
2023-02-05T15:51:42.456Z,96721.25
2023-02-05T15:54:09.039Z,96716.97
2023-02-05T15:56:39.255Z,96719.56
2023-02-05T15:59:15.807Z,96722.09
2023-02-05T16:01:47.950Z,96722.81
2023-02-05T16:04:28.471Z,96722.41
2023-02-05T16:06:55.313Z,96714.78
2023-02-05T16:09:24.960Z,96724.25
2023-02-05T16:11:51.917Z,96720.94
2023-02-05T16:14:24.270Z,96726.97
2023-02-05T16:17:02.946Z,96727.19
2023-02-05T16:19:35.866Z,96731.66
2023-02-05T16:22:35.490Z,96728.94
2023-02-05T16:25:07.641Z,96731.88
2023-02-05T16:27:43.263Z,96730.19
2023-02-05T16:30:33.888Z,96726.84
2023-02-05T16:33:03.953Z,96732.38
2023-02-05T16:35:41.786Z,96732.91
2023-02-05T16:38:23.079Z,96732.06
2023-02-05T16:40:54.805Z,96734.03
2023-02-05T16:43:31.617Z,96726.75
2023-02-05T16:46:20.329Z,96726.00
2023-02-05T16:48:46.870Z,96733.22
2023-02-05T16:52:01.537Z,96729.38
2023-02-05T16:54:31.434Z,96729.41
2023-02-05T16:57:00.918Z,96727.00
2023-02-05T16:59:35.198Z,96737.88
2023-02-05T17:02:03.488Z,96736.84
2023-02-05T17:04:38.741Z,96740.22
2023-02-05T17:07:17.934Z,96747.03
2023-02-05T17:09:44.495Z,96752.72
2023-02-05T17:12:23.112Z,96746.19
2023-02-05T17:14:58.401Z,96747.66
2023-02-05T17:17:26.665Z,96743.78
2023-02-05T17:20:20.013Z,96742.09
2023-02-05T17:23:07.885Z,96739.16
2023-02-05T17:25:38.114Z,96729.66
2023-02-05T17:28:07.225Z,96730.41
2023-02-05T17:30:34.982Z,96725.78
2023-02-05T17:33:06.036Z,96739.00
2023-02-05T17:35:33.798Z,96739.84
2023-02-05T17:38:00.591Z,96736.31
2023-02-05T17:40:27.280Z,96738.22
2023-02-05T17:42:53.859Z,96741.53
2023-02-05T17:45:24.331Z,96748.31
2023-02-05T17:47:50.865Z,96746.44
2023-02-05T17:50:17.665Z,96741.41
2023-02-05T17:52:45.462Z,96752.13
2023-02-05T17:55:15.338Z,96759.16
2023-02-05T17:57:43.456Z,96754.41
2023-02-05T18:00:21.736Z,96753.34
2023-02-05T18:02:48.744Z,96749.59
2023-02-05T18:05:15.687Z,96753.22
2023-02-05T18:07:46.066Z,96750.16
2023-02-05T18:10:15.475Z,96754.19
2023-02-05T18:12:42.154Z,96749.91
2023-02-05T18:15:09.844Z,96736.22
2023-02-05T18:17:36.459Z,96736.78
2023-02-05T18:20:04.668Z,96734.56
2023-02-05T18:22:31.667Z,96744.34
2023-02-05T18:24:58.268Z,96748.78
2023-02-05T18:27:25.956Z,96751.66
2023-02-05T18:29:52.587Z,96745.84
2023-02-05T18:32:19.480Z,96741.34
2023-02-05T18:34:46.040Z,96737.41
2023-02-05T18:37:14.101Z,96741.44
2023-02-05T18:39:40.956Z,96733.91
2023-02-05T18:42:07.578Z,96732.16
2023-02-05T18:44:34.520Z,96738.47
2023-02-05T18:47:02.462Z,96729.44
2023-02-05T18:49:29.032Z,96734.75
2023-02-05T18:51:55.565Z,96731.44
2023-02-05T18:54:22.057Z,96730.75
2023-02-05T18:56:48.748Z,96737.47
2023-02-05T18:59:16.557Z,96735.13
2023-02-05T19:01:43.472Z,96739.44
2023-02-05T19:04:13.078Z,96738.03
2023-02-05T19:06:45.871Z,96743.41
2023-02-05T19:09:12.426Z,96737.75
2023-02-05T19:11:41.279Z,96738.22
2023-02-05T19:14:11.049Z,96736.28
2023-02-05T19:16:39.703Z,96735.72
2023-02-05T19:19:06.887Z,96730.13
2023-02-05T19:21:34.066Z,96742.88
2023-02-05T19:24:05.464Z,96742.78
2023-02-05T19:26:33.178Z,96754.88
2023-02-05T19:29:02.136Z,96763.16
2023-02-05T19:31:31.858Z,96757.41
2023-02-05T19:33:58.738Z,96759.53
2023-02-05T19:36:26.000Z,96755.63
2023-02-05T19:38:53.472Z,96761.31
2023-02-05T19:41:26.218Z,96757.22
2023-02-05T19:43:58.926Z,96771.16
2023-02-05T19:46:27.879Z,96772.28
2023-02-05T19:48:56.270Z,96761.22
2023-02-05T19:51:23.081Z,96768.56
2023-02-05T19:53:49.629Z,96769.97
2023-02-05T19:56:19.199Z,96771.59
2023-02-05T19:58:48.188Z,96774.69
2023-02-05T20:01:24.448Z,96773.84
2023-02-05T20:03:56.860Z,96781.84
2023-02-05T20:06:26.752Z,96781.09
2023-02-05T20:08:53.733Z,96785.22
2023-02-05T20:11:20.558Z,96794.22
2023-02-05T20:13:47.729Z,96797.59
2023-02-05T20:16:19.896Z,96796.06
2023-02-05T20:18:47.668Z,96796.66
2023-02-05T20:21:17.056Z,96798.06
2023-02-05T20:23:43.623Z,96809.28
2023-02-05T20:26:10.674Z,96800.47
2023-02-05T20:28:59.086Z,96812.19
2023-02-05T20:31:34.360Z,96809.50
2023-02-05T20:34:01.661Z,96810.31
2023-02-05T20:36:28.974Z,96804.28
2023-02-05T20:39:00.081Z,96806.41
2023-02-05T20:41:26.965Z,96810.13
2023-02-05T20:43:54.523Z,96814.50
2023-02-05T20:46:21.120Z,96817.03
2023-02-05T20:48:48.457Z,96820.66
2023-02-05T20:51:17.460Z,96828.09
2023-02-05T20:53:44.416Z,96824.09
2023-02-05T20:56:16.961Z,96835.25
2023-02-05T20:58:44.278Z,96838.06
2023-02-05T21:01:23.924Z,96844.72
2023-02-05T21:03:55.779Z,96845.03
2023-02-05T21:06:23.061Z,96845.88
2023-02-05T21:08:51.676Z,96855.16
2023-02-05T21:11:19.594Z,96854.03
2023-02-05T21:13:47.984Z,96858.72
2023-02-05T21:16:18.229Z,96872.66
2023-02-05T21:18:46.000Z,96870.78
2023-02-05T21:21:28.348Z,96879.91
2023-02-05T21:23:56.557Z,96881.22
2023-02-05T21:26:26.045Z,96892.09
2023-02-05T21:28:54.471Z,96891.63
2023-02-05T21:31:21.059Z,96906.06
2023-02-05T21:33:47.660Z,96906.97
2023-02-05T21:36:14.252Z,96914.16
2023-02-05T21:38:42.439Z,96923.72
2023-02-05T21:41:13.946Z,96924.66
2023-02-05T21:43:41.753Z,96921.19
2023-02-05T21:46:13.475Z,96917.69
2023-02-05T21:48:40.543Z,96919.44
2023-02-05T21:51:12.536Z,96930.88
2023-02-05T21:53:39.856Z,96931.81
2023-02-05T21:56:09.181Z,96929.88
2023-02-05T21:58:37.522Z,96941.56
2023-02-05T22:01:22.046Z,96941.97
2023-02-05T22:03:51.745Z,96930.31
2023-02-05T22:06:19.922Z,96940.09
2023-02-05T22:08:50.830Z,96937.94
2023-02-05T22:11:20.448Z,96940.38
2023-02-05T22:13:49.088Z,96943.91
2023-02-05T22:16:21.569Z,96937.94
2023-02-05T22:18:48.743Z,96943.63
2023-02-05T22:21:18.109Z,96944.69
2023-02-05T22:23:50.540Z,96945.59
2023-02-05T22:26:19.029Z,96943.00
2023-02-05T22:28:45.904Z,96948.31
2023-02-05T22:31:15.686Z,96943.00
2023-02-05T22:33:44.788Z,96950.56
2023-02-05T22:36:13.556Z,96951.13
2023-02-05T22:38:41.770Z,96951.22
2023-02-05T22:41:09.525Z,96953.91
2023-02-05T22:43:36.564Z,96956.00
2023-02-05T22:46:08.445Z,96957.50
2023-02-05T22:48:39.918Z,96951.13
2023-02-05T22:51:09.919Z,96961.69
2023-02-05T22:53:36.743Z,96959.66
2023-02-05T22:56:06.624Z,96962.47
2023-02-05T22:58:34.129Z,96960.81
2023-02-05T23:01:14.722Z,96958.81
2023-02-05T23:03:41.365Z,96960.16
2023-02-05T23:06:16.748Z,96969.72
2023-02-05T23:08:43.788Z,96967.03
2023-02-05T23:11:13.339Z,96968.38
2023-02-05T23:13:41.134Z,96961.25
2023-02-05T23:16:13.785Z,96967.78
2023-02-05T23:18:40.904Z,96969.03
2023-02-05T23:21:16.487Z,96976.72
2023-02-05T23:23:43.490Z,96970.41
2023-02-05T23:26:13.509Z,96966.88
2023-02-05T23:28:40.334Z,96973.91
2023-02-05T23:31:07.478Z,96974.50
2023-02-05T23:33:35.477Z,96974.50
2023-02-05T23:36:02.834Z,96968.47
2023-02-05T23:38:29.452Z,96981.69
2023-02-05T23:40:56.269Z,96983.50
2023-02-05T23:43:23.792Z,96983.41
2023-02-05T23:45:52.060Z,96995.91
2023-02-05T23:48:18.802Z,97001.09
2023-02-05T23:50:49.226Z,97010.69
2023-02-05T23:53:15.986Z,97013.13
2023-02-05T23:55:43.913Z,97015.81
2023-02-05T23:58:11.340Z,97016.72
